sensor_id;sensor_type;location;lat;lon;timestamp;P1;durP1;ratioP1;P2;durP2;ratioP2
40729;SDS011;26418;50.070;8.436;2023-12-07T00:02:17;19.20;;;11.88;;
40729;SDS011;26418;50.070;8.436;2023-12-07T00:04:42;21.45;;;10.95;;
40729;SDS011;26418;50.070;8.436;2023-12-07T00:07:08;21.55;;;12.05;;
40729;SDS011;26418;50.070;8.436;2023-12-07T00:09:33;19.33;;;11.02;;
40729;SDS011;26418;50.070;8.436;2023-12-07T00:11:59;20.35;;;11.20;;
40729;SDS011;26418;50.070;8.436;2023-12-07T00:14:24;16.20;;;9.88;;
40729;SDS011;26418;50.070;8.436;2023-12-07T00:16:50;21.65;;;10.55;;
40729;SDS011;26418;50.070;8.436;2023-12-07T00:19:15;17.67;;;11.13;;
40729;SDS011;26418;50.070;8.436;2023-12-07T00:21:41;18.10;;;10.70;;
40729;SDS011;26418;50.070;8.436;2023-12-07T00:24:06;21.15;;;11.05;;
40729;SDS011;26418;50.070;8.436;2023-12-07T00:26:32;17.50;;;11.13;;
40729;SDS011;26418;50.070;8.436;2023-12-07T00:28:58;19.02;;;10.77;;
40729;SDS011;26418;50.070;8.436;2023-12-07T00:31:23;21.42;;;11.48;;
40729;SDS011;26418;50.070;8.436;2023-12-07T00:33:49;19.63;;;10.48;;
40729;SDS011;26418;50.070;8.436;2023-12-07T00:36:16;19.65;;;10.88;;
40729;SDS011;26418;50.070;8.436;2023-12-07T00:38:41;20.98;;;11.32;;
40729;SDS011;26418;50.070;8.436;2023-12-07T00:41:07;22.00;;;12.13;;
40729;SDS011;26418;50.070;8.436;2023-12-07T00:43:32;21.20;;;11.73;;
40729;SDS011;26418;50.070;8.436;2023-12-07T00:45:58;21.38;;;11.43;;
40729;SDS011;26418;50.070;8.436;2023-12-07T00:48:24;21.73;;;10.13;;
40729;SDS011;26418;50.070;8.436;2023-12-07T00:50:49;18.52;;;10.60;;
40729;SDS011;26418;50.070;8.436;2023-12-07T00:53:15;21.55;;;9.80;;
40729;SDS011;26418;50.070;8.436;2023-12-07T00:55:40;19.98;;;11.30;;
40729;SDS011;26418;50.070;8.436;2023-12-07T00:58:06;21.65;;;10.77;;
40729;SDS011;26418;50.070;8.436;2023-12-07T01:00:31;22.10;;;11.30;;
40729;SDS011;26418;50.070;8.436;2023-12-07T01:02:57;18.45;;;10.90;;
40729;SDS011;26418;50.070;8.436;2023-12-07T01:05:22;18.05;;;10.93;;
40729;SDS011;26418;50.070;8.436;2023-12-07T01:07:48;20.98;;;9.95;;
40729;SDS011;26418;50.070;8.436;2023-12-07T01:10:13;18.33;;;10.15;;
40729;SDS011;26418;50.070;8.436;2023-12-07T01:12:39;21.27;;;10.30;;
40729;SDS011;26418;50.070;8.436;2023-12-07T01:15:05;19.83;;;10.18;;
40729;SDS011;26418;50.070;8.436;2023-12-07T01:17:31;17.55;;;9.45;;
40729;SDS011;26418;50.070;8.436;2023-12-07T01:19:57;24.17;;;10.68;;
40729;SDS011;26418;50.070;8.436;2023-12-07T01:22:22;25.30;;;10.25;;
40729;SDS011;26418;50.070;8.436;2023-12-07T01:24:48;20.08;;;9.73;;
40729;SDS011;26418;50.070;8.436;2023-12-07T01:27:13;23.60;;;10.32;;
40729;SDS011;26418;50.070;8.436;2023-12-07T01:29:39;17.50;;;9.63;;
40729;SDS011;26418;50.070;8.436;2023-12-07T01:32:05;22.25;;;10.23;;
40729;SDS011;26418;50.070;8.436;2023-12-07T01:34:31;17.50;;;9.32;;
40729;SDS011;26418;50.070;8.436;2023-12-07T01:36:57;22.92;;;9.50;;
40729;SDS011;26418;50.070;8.436;2023-12-07T01:39:23;16.52;;;9.13;;
40729;SDS011;26418;50.070;8.436;2023-12-07T01:41:49;18.60;;;8.13;;
40729;SDS011;26418;50.070;8.436;2023-12-07T01:44:16;17.38;;;10.88;;
40729;SDS011;26418;50.070;8.436;2023-12-07T01:46:42;18.50;;;9.43;;
40729;SDS011;26418;50.070;8.436;2023-12-07T01:49:08;15.68;;;8.57;;
40729;SDS011;26418;50.070;8.436;2023-12-07T01:51:34;16.40;;;8.45;;
40729;SDS011;26418;50.070;8.436;2023-12-07T01:54:00;18.20;;;9.13;;
40729;SDS011;26418;50.070;8.436;2023-12-07T01:56:26;14.93;;;9.07;;
40729;SDS011;26418;50.070;8.436;2023-12-07T01:58:52;17.98;;;8.80;;
40729;SDS011;26418;50.070;8.436;2023-12-07T02:01:18;20.23;;;8.80;;
40729;SDS011;26418;50.070;8.436;2023-12-07T02:03:44;17.42;;;9.23;;
40729;SDS011;26418;50.070;8.436;2023-12-07T02:06:10;18.92;;;10.02;;
40729;SDS011;26418;50.070;8.436;2023-12-07T02:08:36;16.23;;;8.73;;
40729;SDS011;26418;50.070;8.436;2023-12-07T02:11:09;15.80;;;8.35;;
40729;SDS011;26418;50.070;8.436;2023-12-07T02:13:38;15.98;;;8.02;;
40729;SDS011;26418;50.070;8.436;2023-12-07T02:16:07;14.82;;;7.45;;
40729;SDS011;26418;50.070;8.436;2023-12-07T02:18:44;12.90;;;7.28;;
40729;SDS011;26418;50.070;8.436;2023-12-07T02:21:25;15.68;;;10.48;;
40729;SDS011;26418;50.070;8.436;2023-12-07T02:23:59;13.32;;;8.32;;
40729;SDS011;26418;50.070;8.436;2023-12-07T02:26:36;16.52;;;8.00;;
40729;SDS011;26418;50.070;8.436;2023-12-07T02:29:03;14.85;;;7.93;;
40729;SDS011;26418;50.070;8.436;2023-12-07T02:31:28;11.60;;;7.25;;
40729;SDS011;26418;50.070;8.436;2023-12-07T02:33:55;15.55;;;7.35;;
40729;SDS011;26418;50.070;8.436;2023-12-07T02:36:22;14.60;;;7.47;;
40729;SDS011;26418;50.070;8.436;2023-12-07T02:38:49;16.50;;;7.90;;
40729;SDS011;26418;50.070;8.436;2023-12-07T02:41:17;19.13;;;7.35;;
40729;SDS011;26418;50.070;8.436;2023-12-07T02:43:44;14.88;;;8.10;;
40729;SDS011;26418;50.070;8.436;2023-12-07T02:46:10;12.77;;;7.22;;
40729;SDS011;26418;50.070;8.436;2023-12-07T02:48:35;11.18;;;6.40;;
40729;SDS011;26418;50.070;8.436;2023-12-07T02:51:01;19.35;;;7.53;;
40729;SDS011;26418;50.070;8.436;2023-12-07T02:53:26;10.82;;;5.93;;
40729;SDS011;26418;50.070;8.436;2023-12-07T02:55:52;10.65;;;6.70;;
40729;SDS011;26418;50.070;8.436;2023-12-07T02:58:17;9.15;;;6.00;;
40729;SDS011;26418;50.070;8.436;2023-12-07T03:00:43;12.13;;;6.05;;
40729;SDS011;26418;50.070;8.436;2023-12-07T03:03:09;8.38;;;5.57;;
40729;SDS011;26418;50.070;8.436;2023-12-07T03:05:34;8.90;;;5.70;;
40729;SDS011;26418;50.070;8.436;2023-12-07T03:08:00;8.88;;;5.25;;
40729;SDS011;26418;50.070;8.436;2023-12-07T03:10:25;9.38;;;5.10;;
40729;SDS011;26418;50.070;8.436;2023-12-07T03:12:51;9.23;;;4.97;;
40729;SDS011;26418;50.070;8.436;2023-12-07T03:15:16;12.35;;;6.80;;
40729;SDS011;26418;50.070;8.436;2023-12-07T03:17:42;16.65;;;8.38;;
40729;SDS011;26418;50.070;8.436;2023-12-07T03:20:08;16.02;;;9.60;;
40729;SDS011;26418;50.070;8.436;2023-12-07T03:22:35;15.23;;;9.35;;
40729;SDS011;26418;50.070;8.436;2023-12-07T03:25:01;20.13;;;9.80;;
40729;SDS011;26418;50.070;8.436;2023-12-07T03:27:26;19.50;;;10.02;;
40729;SDS011;26418;50.070;8.436;2023-12-07T03:29:53;12.90;;;8.23;;
40729;SDS011;26418;50.070;8.436;2023-12-07T03:32:19;19.05;;;10.00;;
40729;SDS011;26418;50.070;8.436;2023-12-07T03:34:44;16.33;;;9.75;;
40729;SDS011;26418;50.070;8.436;2023-12-07T03:37:10;15.68;;;8.48;;
40729;SDS011;26418;50.070;8.436;2023-12-07T03:39:35;16.80;;;8.38;;
40729;SDS011;26418;50.070;8.436;2023-12-07T03:42:01;15.80;;;8.15;;
40729;SDS011;26418;50.070;8.436;2023-12-07T03:44:26;15.30;;;8.20;;
40729;SDS011;26418;50.070;8.436;2023-12-07T03:46:52;15.57;;;7.82;;
40729;SDS011;26418;50.070;8.436;2023-12-07T03:49:18;13.32;;;7.72;;
40729;SDS011;26418;50.070;8.436;2023-12-07T03:51:43;14.55;;;9.10;;
40729;SDS011;26418;50.070;8.436;2023-12-07T03:54:09;18.63;;;10.23;;
40729;SDS011;26418;50.070;8.436;2023-12-07T03:56:35;16.63;;;9.23;;
40729;SDS011;26418;50.070;8.436;2023-12-07T03:59:00;18.10;;;8.65;;
40729;SDS011;26418;50.070;8.436;2023-12-07T04:01:27;15.80;;;7.95;;
40729;SDS011;26418;50.070;8.436;2023-12-07T04:03:54;14.57;;;7.53;;
40729;SDS011;26418;50.070;8.436;2023-12-07T04:06:21;15.45;;;8.27;;
40729;SDS011;26418;50.070;8.436;2023-12-07T04:08:47;13.93;;;7.75;;
40729;SDS011;26418;50.070;8.436;2023-12-07T04:11:13;15.38;;;8.02;;
40729;SDS011;26418;50.070;8.436;2023-12-07T04:13:39;14.30;;;8.05;;
40729;SDS011;26418;50.070;8.436;2023-12-07T04:16:05;14.88;;;7.72;;
40729;SDS011;26418;50.070;8.436;2023-12-07T04:18:31;19.67;;;11.02;;
40729;SDS011;26418;50.070;8.436;2023-12-07T04:20:57;20.77;;;9.65;;
40729;SDS011;26418;50.070;8.436;2023-12-07T04:23:23;18.50;;;9.63;;
40729;SDS011;26418;50.070;8.436;2023-12-07T04:25:48;18.83;;;10.02;;
40729;SDS011;26418;50.070;8.436;2023-12-07T04:28:14;17.55;;;9.70;;
40729;SDS011;26418;50.070;8.436;2023-12-07T04:30:39;16.25;;;9.88;;
40729;SDS011;26418;50.070;8.436;2023-12-07T04:33:05;24.83;;;11.00;;
40729;SDS011;26418;50.070;8.436;2023-12-07T04:35:31;19.50;;;11.07;;
40729;SDS011;26418;50.070;8.436;2023-12-07T04:37:57;24.63;;;10.80;;
40729;SDS011;26418;50.070;8.436;2023-12-07T04:40:23;16.23;;;9.27;;
40729;SDS011;26418;50.070;8.436;2023-12-07T04:42:49;20.40;;;9.48;;
40729;SDS011;26418;50.070;8.436;2023-12-07T04:45:15;14.35;;;8.38;;
40729;SDS011;26418;50.070;8.436;2023-12-07T04:47:41;16.58;;;9.43;;
40729;SDS011;26418;50.070;8.436;2023-12-07T04:50:07;20.98;;;11.48;;
40729;SDS011;26418;50.070;8.436;2023-12-07T04:52:32;23.83;;;12.55;;
40729;SDS011;26418;50.070;8.436;2023-12-07T04:54:58;36.22;;;16.13;;
40729;SDS011;26418;50.070;8.436;2023-12-07T04:57:24;39.58;;;15.68;;
40729;SDS011;26418;50.070;8.436;2023-12-07T04:59:50;30.67;;;14.35;;
40729;SDS011;26418;50.070;8.436;2023-12-07T05:02:15;30.95;;;14.48;;
40729;SDS011;26418;50.070;8.436;2023-12-07T05:04:42;23.00;;;13.10;;
40729;SDS011;26418;50.070;8.436;2023-12-07T05:07:08;24.52;;;13.93;;
40729;SDS011;26418;50.070;8.436;2023-12-07T05:09:34;26.00;;;13.77;;
40729;SDS011;26418;50.070;8.436;2023-12-07T05:12:00;31.52;;;14.32;;
40729;SDS011;26418;50.070;8.436;2023-12-07T05:14:25;28.33;;;14.07;;
40729;SDS011;26418;50.070;8.436;2023-12-07T05:16:51;28.00;;;13.82;;
40729;SDS011;26418;50.070;8.436;2023-12-07T05:19:21;25.45;;;12.85;;
40729;SDS011;26418;50.070;8.436;2023-12-07T05:21:47;19.25;;;11.20;;
40729;SDS011;26418;50.070;8.436;2023-12-07T05:24:13;18.98;;;10.50;;
40729;SDS011;26418;50.070;8.436;2023-12-07T05:26:42;18.80;;;9.98;;
40729;SDS011;26418;50.070;8.436;2023-12-07T05:29:09;17.77;;;9.50;;
40729;SDS011;26418;50.070;8.436;2023-12-07T05:31:35;22.80;;;10.40;;
40729;SDS011;26418;50.070;8.436;2023-12-07T05:34:01;24.40;;;12.68;;
40729;SDS011;26418;50.070;8.436;2023-12-07T05:36:27;23.77;;;11.43;;
40729;SDS011;26418;50.070;8.436;2023-12-07T05:38:53;22.83;;;11.43;;
40729;SDS011;26418;50.070;8.436;2023-12-07T05:41:19;20.70;;;10.85;;
40729;SDS011;26418;50.070;8.436;2023-12-07T05:43:44;18.42;;;10.50;;
40729;SDS011;26418;50.070;8.436;2023-12-07T05:46:10;18.45;;;9.60;;
40729;SDS011;26418;50.070;8.436;2023-12-07T05:48:36;20.20;;;10.38;;
40729;SDS011;26418;50.070;8.436;2023-12-07T05:51:02;23.35;;;11.38;;
40729;SDS011;26418;50.070;8.436;2023-12-07T05:53:27;22.63;;;11.93;;
40729;SDS011;26418;50.070;8.436;2023-12-07T05:55:54;18.40;;;10.85;;
40729;SDS011;26418;50.070;8.436;2023-12-07T05:58:19;24.27;;;11.43;;
40729;SDS011;26418;50.070;8.436;2023-12-07T06:00:45;25.05;;;12.30;;
40729;SDS011;26418;50.070;8.436;2023-12-07T06:03:12;24.40;;;11.77;;
40729;SDS011;26418;50.070;8.436;2023-12-07T06:05:38;20.58;;;9.88;;
40729;SDS011;26418;50.070;8.436;2023-12-07T06:08:04;24.08;;;8.70;;
40729;SDS011;26418;50.070;8.436;2023-12-07T06:10:30;19.25;;;8.63;;
40729;SDS011;26418;50.070;8.436;2023-12-07T06:12:56;23.42;;;10.35;;
40729;SDS011;26418;50.070;8.436;2023-12-07T06:15:23;21.98;;;11.00;;
40729;SDS011;26418;50.070;8.436;2023-12-07T06:17:49;28.73;;;14.20;;
40729;SDS011;26418;50.070;8.436;2023-12-07T06:20:15;24.33;;;11.55;;
40729;SDS011;26418;50.070;8.436;2023-12-07T06:22:40;25.98;;;13.93;;
40729;SDS011;26418;50.070;8.436;2023-12-07T06:25:06;22.45;;;12.07;;
40729;SDS011;26418;50.070;8.436;2023-12-07T06:27:34;24.98;;;13.55;;
40729;SDS011;26418;50.070;8.436;2023-12-07T06:30:00;27.02;;;13.15;;
40729;SDS011;26418;50.070;8.436;2023-12-07T06:32:26;20.52;;;13.00;;
40729;SDS011;26418;50.070;8.436;2023-12-07T06:34:52;24.13;;;11.52;;
40729;SDS011;26418;50.070;8.436;2023-12-07T06:37:18;20.65;;;9.95;;
40729;SDS011;26418;50.070;8.436;2023-12-07T06:39:45;17.85;;;9.65;;
40729;SDS011;26418;50.070;8.436;2023-12-07T06:42:11;21.30;;;10.75;;
40729;SDS011;26418;50.070;8.436;2023-12-07T06:44:36;21.70;;;10.35;;
40729;SDS011;26418;50.070;8.436;2023-12-07T06:47:02;21.58;;;10.98;;
40729;SDS011;26418;50.070;8.436;2023-12-07T06:49:30;19.02;;;10.10;;
40729;SDS011;26418;50.070;8.436;2023-12-07T06:51:55;20.35;;;9.38;;
40729;SDS011;26418;50.070;8.436;2023-12-07T06:54:21;17.15;;;9.15;;
40729;SDS011;26418;50.070;8.436;2023-12-07T06:56:47;18.20;;;9.30;;
40729;SDS011;26418;50.070;8.436;2023-12-07T06:59:12;17.38;;;9.35;;
40729;SDS011;26418;50.070;8.436;2023-12-07T07:01:39;17.40;;;9.07;;
40729;SDS011;26418;50.070;8.436;2023-12-07T07:04:05;18.65;;;9.35;;
40729;SDS011;26418;50.070;8.436;2023-12-07T07:06:30;23.98;;;11.32;;
40729;SDS011;26418;50.070;8.436;2023-12-07T07:08:56;24.20;;;12.05;;
40729;SDS011;26418;50.070;8.436;2023-12-07T07:11:22;23.98;;;11.80;;
40729;SDS011;26418;50.070;8.436;2023-12-07T07:13:47;25.67;;;11.38;;
40729;SDS011;26418;50.070;8.436;2023-12-07T07:16:13;27.85;;;12.48;;
40729;SDS011;26418;50.070;8.436;2023-12-07T07:18:39;26.95;;;14.18;;
40729;SDS011;26418;50.070;8.436;2023-12-07T07:21:05;29.13;;;14.25;;
40729;SDS011;26418;50.070;8.436;2023-12-07T07:23:31;31.10;;;15.65;;
40729;SDS011;26418;50.070;8.436;2023-12-07T07:25:57;27.92;;;13.95;;
40729;SDS011;26418;50.070;8.436;2023-12-07T07:28:22;26.58;;;13.18;;
40729;SDS011;26418;50.070;8.436;2023-12-07T07:30:48;29.88;;;14.40;;
40729;SDS011;26418;50.070;8.436;2023-12-07T07:33:13;29.10;;;15.15;;
40729;SDS011;26418;50.070;8.436;2023-12-07T07:35:39;25.10;;;12.70;;
40729;SDS011;26418;50.070;8.436;2023-12-07T07:38:05;26.17;;;13.25;;
40729;SDS011;26418;50.070;8.436;2023-12-07T07:40:30;24.90;;;12.57;;
40729;SDS011;26418;50.070;8.436;2023-12-07T07:42:56;26.95;;;12.23;;
40729;SDS011;26418;50.070;8.436;2023-12-07T07:45:21;22.42;;;12.20;;
40729;SDS011;26418;50.070;8.436;2023-12-07T07:47:47;22.48;;;11.90;;
40729;SDS011;26418;50.070;8.436;2023-12-07T07:50:13;24.55;;;12.23;;
40729;SDS011;26418;50.070;8.436;2023-12-07T07:52:39;23.52;;;11.95;;
40729;SDS011;26418;50.070;8.436;2023-12-07T07:55:05;31.95;;;15.80;;
40729;SDS011;26418;50.070;8.436;2023-12-07T07:57:32;40.95;;;17.17;;
40729;SDS011;26418;50.070;8.436;2023-12-07T07:59:57;41.40;;;17.20;;
40729;SDS011;26418;50.070;8.436;2023-12-07T08:02:23;41.00;;;18.52;;
40729;SDS011;26418;50.070;8.436;2023-12-07T08:04:49;38.80;;;17.98;;
40729;SDS011;26418;50.070;8.436;2023-12-07T08:07:16;51.63;;;19.48;;
40729;SDS011;26418;50.070;8.436;2023-12-07T08:09:42;38.78;;;16.73;;
40729;SDS011;26418;50.070;8.436;2023-12-07T08:12:08;39.95;;;17.80;;
40729;SDS011;26418;50.070;8.436;2023-12-07T08:14:37;42.60;;;18.00;;
40729;SDS011;26418;50.070;8.436;2023-12-07T08:17:03;43.13;;;18.67;;
40729;SDS011;26418;50.070;8.436;2023-12-07T08:19:29;43.00;;;16.92;;
40729;SDS011;26418;50.070;8.436;2023-12-07T08:21:54;39.63;;;17.95;;
40729;SDS011;26418;50.070;8.436;2023-12-07T08:24:20;44.90;;;18.60;;
40729;SDS011;26418;50.070;8.436;2023-12-07T08:26:45;45.42;;;19.50;;
40729;SDS011;26418;50.070;8.436;2023-12-07T08:29:11;51.97;;;19.73;;
40729;SDS011;26418;50.070;8.436;2023-12-07T08:31:36;41.22;;;18.92;;
40729;SDS011;26418;50.070;8.436;2023-12-07T08:34:02;43.58;;;19.05;;
40729;SDS011;26418;50.070;8.436;2023-12-07T08:36:27;42.85;;;19.20;;
40729;SDS011;26418;50.070;8.436;2023-12-07T08:38:53;39.40;;;17.70;;
40729;SDS011;26418;50.070;8.436;2023-12-07T08:41:19;40.13;;;17.08;;
40729;SDS011;26418;50.070;8.436;2023-12-07T08:43:45;39.92;;;17.42;;
40729;SDS011;26418;50.070;8.436;2023-12-07T08:46:10;41.53;;;16.67;;
40729;SDS011;26418;50.070;8.436;2023-12-07T08:48:36;37.17;;;18.25;;
40729;SDS011;26418;50.070;8.436;2023-12-07T08:51:03;35.30;;;16.77;;
40729;SDS011;26418;50.070;8.436;2023-12-07T08:53:28;41.10;;;18.50;;
40729;SDS011;26418;50.070;8.436;2023-12-07T08:55:54;44.97;;;19.45;;
40729;SDS011;26418;50.070;8.436;2023-12-07T08:58:20;40.80;;;18.50;;
40729;SDS011;26418;50.070;8.436;2023-12-07T09:00:46;42.08;;;18.05;;
40729;SDS011;26418;50.070;8.436;2023-12-07T09:03:11;42.42;;;18.38;;
40729;SDS011;26418;50.070;8.436;2023-12-07T09:05:37;40.13;;;18.23;;
40729;SDS011;26418;50.070;8.436;2023-12-07T09:08:02;43.45;;;18.15;;
40729;SDS011;26418;50.070;8.436;2023-12-07T09:10:28;43.33;;;18.05;;
40729;SDS011;26418;50.070;8.436;2023-12-07T09:12:54;38.30;;;18.15;;
40729;SDS011;26418;50.070;8.436;2023-12-07T09:15:19;39.15;;;17.02;;
40729;SDS011;26418;50.070;8.436;2023-12-07T09:17:46;34.58;;;16.50;;
40729;SDS011;26418;50.070;8.436;2023-12-07T09:20:13;43.22;;;18.67;;
40729;SDS011;26418;50.070;8.436;2023-12-07T09:22:43;46.67;;;18.13;;
40729;SDS011;26418;50.070;8.436;2023-12-07T09:25:10;35.72;;;16.77;;
40729;SDS011;26418;50.070;8.436;2023-12-07T09:27:37;42.08;;;17.40;;
40729;SDS011;26418;50.070;8.436;2023-12-07T09:30:06;36.90;;;16.50;;
40729;SDS011;26418;50.070;8.436;2023-12-07T09:32:36;35.45;;;15.20;;
40729;SDS011;26418;50.070;8.436;2023-12-07T09:35:06;38.20;;;15.95;;
40729;SDS011;26418;50.070;8.436;2023-12-07T09:37:33;32.45;;;14.52;;
40729;SDS011;26418;50.070;8.436;2023-12-07T09:40:00;35.28;;;15.80;;
40729;SDS011;26418;50.070;8.436;2023-12-07T09:42:26;32.17;;;15.20;;
40729;SDS011;26418;50.070;8.436;2023-12-07T09:44:52;32.00;;;14.30;;
40729;SDS011;26418;50.070;8.436;2023-12-07T09:47:17;34.80;;;14.95;;
40729;SDS011;26418;50.070;8.436;2023-12-07T09:49:44;31.15;;;14.90;;
40729;SDS011;26418;50.070;8.436;2023-12-07T09:52:10;29.58;;;13.02;;
40729;SDS011;26418;50.070;8.436;2023-12-07T09:54:36;26.30;;;12.73;;
40729;SDS011;26418;50.070;8.436;2023-12-07T09:57:05;32.80;;;14.13;;
40729;SDS011;26418;50.070;8.436;2023-12-07T09:59:30;26.63;;;13.02;;
40729;SDS011;26418;50.070;8.436;2023-12-07T10:01:56;25.80;;;12.35;;
40729;SDS011;26418;50.070;8.436;2023-12-07T10:04:22;32.75;;;20.30;;
40729;SDS011;26418;50.070;8.436;2023-12-07T10:06:51;25.30;;;13.82;;
40729;SDS011;26418;50.070;8.436;2023-12-07T10:09:17;23.50;;;12.55;;
40729;SDS011;26418;50.070;8.436;2023-12-07T10:11:46;28.08;;;13.07;;
40729;SDS011;26418;50.070;8.436;2023-12-07T10:14:12;25.15;;;11.70;;
40729;SDS011;26418;50.070;8.436;2023-12-07T10:16:39;24.63;;;12.27;;
40729;SDS011;26418;50.070;8.436;2023-12-07T10:19:18;27.63;;;13.60;;
40729;SDS011;26418;50.070;8.436;2023-12-07T10:21:50;25.13;;;12.75;;
40729;SDS011;26418;50.070;8.436;2023-12-07T10:24:17;25.20;;;12.48;;
40729;SDS011;26418;50.070;8.436;2023-12-07T10:26:45;30.58;;;13.85;;
40729;SDS011;26418;50.070;8.436;2023-12-07T10:29:11;30.75;;;14.63;;
40729;SDS011;26418;50.070;8.436;2023-12-07T10:31:37;28.13;;;13.65;;
40729;SDS011;26418;50.070;8.436;2023-12-07T10:34:06;29.13;;;13.90;;
40729;SDS011;26418;50.070;8.436;2023-12-07T10:36:32;25.42;;;13.18;;
40729;SDS011;26418;50.070;8.436;2023-12-07T10:38:58;32.83;;;15.75;;
40729;SDS011;26418;50.070;8.436;2023-12-07T10:41:24;35.67;;;16.35;;
40729;SDS011;26418;50.070;8.436;2023-12-07T10:43:54;32.03;;;15.85;;
40729;SDS011;26418;50.070;8.436;2023-12-07T10:46:25;40.80;;;17.80;;
40729;SDS011;26418;50.070;8.436;2023-12-07T10:48:54;31.98;;;16.10;;
40729;SDS011;26418;50.070;8.436;2023-12-07T10:51:26;38.97;;;16.25;;
40729;SDS011;26418;50.070;8.436;2023-12-07T10:53:56;38.55;;;16.45;;
40729;SDS011;26418;50.070;8.436;2023-12-07T10:56:32;35.58;;;15.88;;
40729;SDS011;26418;50.070;8.436;2023-12-07T10:59:08;35.05;;;16.52;;
40729;SDS011;26418;50.070;8.436;2023-12-07T11:01:37;32.67;;;15.38;;
40729;SDS011;26418;50.070;8.436;2023-12-07T11:04:08;33.38;;;16.15;;
40729;SDS011;26418;50.070;8.436;2023-12-07T11:06:36;29.67;;;14.30;;
40729;SDS011;26418;50.070;8.436;2023-12-07T11:09:05;31.45;;;14.55;;
40729;SDS011;26418;50.070;8.436;2023-12-07T11:11:40;34.10;;;15.43;;
40729;SDS011;26418;50.070;8.436;2023-12-07T11:14:10;31.73;;;13.32;;
40729;SDS011;26418;50.070;8.436;2023-12-07T11:16:42;26.55;;;12.82;;
40729;SDS011;26418;50.070;8.436;2023-12-07T11:22:02;26.65;;;13.38;;
40729;SDS011;26418;50.070;8.436;2023-12-07T11:24:35;32.95;;;16.27;;
40729;SDS011;26418;50.070;8.436;2023-12-07T11:27:01;30.30;;;15.02;;
40729;SDS011;26418;50.070;8.436;2023-12-07T11:29:30;32.83;;;15.50;;
40729;SDS011;26418;50.070;8.436;2023-12-07T11:31:58;30.15;;;14.95;;
40729;SDS011;26418;50.070;8.436;2023-12-07T11:34:34;30.58;;;13.85;;
40729;SDS011;26418;50.070;8.436;2023-12-07T11:37:09;34.65;;;16.17;;
40729;SDS011;26418;50.070;8.436;2023-12-07T11:39:44;36.28;;;16.70;;
40729;SDS011;26418;50.070;8.436;2023-12-07T11:42:19;33.75;;;15.30;;
40729;SDS011;26418;50.070;8.436;2023-12-07T11:44:47;32.40;;;15.50;;
40729;SDS011;26418;50.070;8.436;2023-12-07T11:47:20;32.75;;;16.52;;
40729;SDS011;26418;50.070;8.436;2023-12-07T11:49:46;40.95;;;18.27;;
40729;SDS011;26418;50.070;8.436;2023-12-07T11:52:15;41.13;;;17.55;;
40729;SDS011;26418;50.070;8.436;2023-12-07T11:54:45;38.22;;;16.90;;
40729;SDS011;26418;50.070;8.436;2023-12-07T11:57:15;38.15;;;16.40;;
40729;SDS011;26418;50.070;8.436;2023-12-07T11:59:43;40.92;;;16.52;;
40729;SDS011;26418;50.070;8.436;2023-12-07T12:02:12;35.20;;;16.77;;
40729;SDS011;26418;50.070;8.436;2023-12-07T12:04:41;34.97;;;16.33;;
40729;SDS011;26418;50.070;8.436;2023-12-07T12:07:07;39.90;;;18.08;;
40729;SDS011;26418;50.070;8.436;2023-12-07T12:09:33;42.47;;;19.85;;
40729;SDS011;26418;50.070;8.436;2023-12-07T12:11:59;39.33;;;18.35;;
40729;SDS011;26418;50.070;8.436;2023-12-07T12:14:25;40.78;;;17.23;;
40729;SDS011;26418;50.070;8.436;2023-12-07T12:16:51;46.95;;;19.13;;
40729;SDS011;26418;50.070;8.436;2023-12-07T12:19:17;40.85;;;17.35;;
40729;SDS011;26418;50.070;8.436;2023-12-07T12:21:43;42.67;;;18.75;;
40729;SDS011;26418;50.070;8.436;2023-12-07T12:24:09;41.28;;;17.83;;
40729;SDS011;26418;50.070;8.436;2023-12-07T12:26:37;40.20;;;17.20;;
40729;SDS011;26418;50.070;8.436;2023-12-07T12:29:08;36.75;;;16.63;;
40729;SDS011;26418;50.070;8.436;2023-12-07T12:31:34;38.97;;;17.02;;
40729;SDS011;26418;50.070;8.436;2023-12-07T12:34:01;38.58;;;17.02;;
40729;SDS011;26418;50.070;8.436;2023-12-07T12:36:27;41.92;;;17.50;;
40729;SDS011;26418;50.070;8.436;2023-12-07T12:38:53;39.10;;;16.90;;
40729;SDS011;26418;50.070;8.436;2023-12-07T12:41:19;44.88;;;19.05;;
40729;SDS011;26418;50.070;8.436;2023-12-07T12:43:45;50.55;;;19.27;;
40729;SDS011;26418;50.070;8.436;2023-12-07T12:46:12;47.95;;;18.48;;
40729;SDS011;26418;50.070;8.436;2023-12-07T12:48:52;43.08;;;17.90;;
40729;SDS011;26418;50.070;8.436;2023-12-07T12:51:23;44.40;;;17.40;;
40729;SDS011;26418;50.070;8.436;2023-12-07T12:53:53;44.30;;;16.92;;
40729;SDS011;26418;50.070;8.436;2023-12-07T12:56:20;46.22;;;19.10;;
40729;SDS011;26418;50.070;8.436;2023-12-07T12:58:47;42.72;;;17.70;;
40729;SDS011;26418;50.070;8.436;2023-12-07T13:01:16;41.30;;;18.15;;
40729;SDS011;26418;50.070;8.436;2023-12-07T13:03:48;45.97;;;17.80;;
40729;SDS011;26418;50.070;8.436;2023-12-07T13:06:14;46.45;;;17.98;;
40729;SDS011;26418;50.070;8.436;2023-12-07T13:08:43;46.28;;;17.02;;
40729;SDS011;26418;50.070;8.436;2023-12-07T13:11:14;37.00;;;16.63;;
40729;SDS011;26418;50.070;8.436;2023-12-07T13:13:44;40.97;;;17.17;;
40729;SDS011;26418;50.070;8.436;2023-12-07T13:16:12;48.08;;;18.33;;
40729;SDS011;26418;50.070;8.436;2023-12-07T13:18:39;42.25;;;17.15;;
40729;SDS011;26418;50.070;8.436;2023-12-07T13:21:05;43.38;;;17.42;;
40729;SDS011;26418;50.070;8.436;2023-12-07T13:23:31;43.90;;;18.15;;
40729;SDS011;26418;50.070;8.436;2023-12-07T13:25:56;39.53;;;16.33;;
40729;SDS011;26418;50.070;8.436;2023-12-07T13:28:22;42.00;;;16.92;;
40729;SDS011;26418;50.070;8.436;2023-12-07T13:30:48;44.53;;;18.30;;
40729;SDS011;26418;50.070;8.436;2023-12-07T13:33:14;45.85;;;20.10;;
40729;SDS011;26418;50.070;8.436;2023-12-07T13:35:39;45.47;;;18.00;;
40729;SDS011;26418;50.070;8.436;2023-12-07T13:38:05;47.38;;;17.33;;
40729;SDS011;26418;50.070;8.436;2023-12-07T13:40:30;45.72;;;17.83;;
40729;SDS011;26418;50.070;8.436;2023-12-07T13:42:56;44.92;;;16.65;;
40729;SDS011;26418;50.070;8.436;2023-12-07T13:45:21;37.83;;;15.68;;
40729;SDS011;26418;50.070;8.436;2023-12-07T13:47:47;43.63;;;17.38;;
40729;SDS011;26418;50.070;8.436;2023-12-07T13:50:13;52.83;;;20.67;;
40729;SDS011;26418;50.070;8.436;2023-12-07T13:52:39;40.47;;;18.15;;
40729;SDS011;26418;50.070;8.436;2023-12-07T13:55:04;45.22;;;18.08;;
40729;SDS011;26418;50.070;8.436;2023-12-07T13:57:30;44.35;;;18.80;;
40729;SDS011;26418;50.070;8.436;2023-12-07T13:59:56;41.20;;;18.10;;
40729;SDS011;26418;50.070;8.436;2023-12-07T14:02:22;50.92;;;20.63;;
40729;SDS011;26418;50.070;8.436;2023-12-07T14:04:49;46.90;;;19.17;;
40729;SDS011;26418;50.070;8.436;2023-12-07T14:07:16;49.38;;;19.58;;
40729;SDS011;26418;50.070;8.436;2023-12-07T14:09:44;48.80;;;20.13;;
40729;SDS011;26418;50.070;8.436;2023-12-07T14:12:11;42.90;;;18.63;;
40729;SDS011;26418;50.070;8.436;2023-12-07T14:14:40;47.63;;;18.73;;
40729;SDS011;26418;50.070;8.436;2023-12-07T14:17:06;48.78;;;19.40;;
40729;SDS011;26418;50.070;8.436;2023-12-07T14:19:32;49.13;;;22.38;;
40729;SDS011;26418;50.070;8.436;2023-12-07T14:21:58;51.30;;;20.38;;
40729;SDS011;26418;50.070;8.436;2023-12-07T14:24:24;46.72;;;20.77;;
40729;SDS011;26418;50.070;8.436;2023-12-07T14:26:50;48.00;;;20.60;;